createdAt,value
2023-01-25T00:00:40.135Z,9.38
2023-01-25T00:02:22.238Z,9.43
2023-01-25T00:03:46.198Z,9.65
2023-01-25T00:04:21.931Z,9.70
2023-01-25T00:04:54.756Z,9.80
2023-01-25T00:05:47.276Z,9.70
2023-01-25T00:06:20.025Z,9.84
2023-01-25T00:07:11.989Z,9.60
2023-01-25T00:07:44.726Z,9.30
2023-01-25T00:08:17.458Z,9.40
2023-01-25T00:08:52.463Z,9.52
2023-01-25T00:09:43.754Z,9.20
2023-01-25T00:11:08.991Z,9.25
2023-01-25T00:12:47.464Z,9.68
2023-01-25T00:14:32.622Z,9.63
2023-01-25T00:15:06.620Z,9.55
2023-01-25T00:15:39.091Z,9.52
2023-01-25T00:16:11.888Z,10.13
2023-01-25T00:16:44.670Z,9.45
2023-01-25T00:17:17.389Z,9.86
2023-01-25T00:17:50.233Z,9.50
2023-01-25T00:18:42.102Z,9.90
2023-01-25T00:19:14.865Z,10.06
2023-01-25T00:19:47.618Z,9.60
2023-01-25T00:20:21.140Z,9.30
2023-01-25T00:21:28.152Z,10.10
2023-01-25T00:22:00.873Z,9.55
2023-01-25T00:22:34.983Z,9.70
2023-01-25T00:23:07.710Z,9.48
2023-01-25T00:23:22.822Z,9.40
2023-01-25T00:23:55.589Z,9.32
2023-01-25T00:24:28.333Z,10.10
2023-01-25T00:25:33.361Z,9.38
2023-01-25T00:26:06.104Z,9.63
2023-01-25T00:26:19.076Z,9.98
2023-01-25T00:28:02.703Z,9.71
2023-01-25T00:28:36.571Z,9.85
2023-01-25T00:29:11.452Z,10.40
2023-01-25T00:30:02.743Z,10.10
2023-01-25T00:30:35.474Z,9.82
2023-01-25T00:31:35.117Z,9.80
2023-01-25T00:32:21.936Z,10.05
2023-01-25T00:33:18.201Z,9.82
2023-01-25T00:33:51.892Z,10.38
2023-01-25T00:35:16.434Z,9.85
2023-01-25T00:36:40.867Z,9.90
2023-01-25T00:38:31.345Z,9.73
2023-01-25T00:39:41.855Z,10.04
2023-01-25T00:39:54.711Z,10.25
2023-01-25T00:40:09.515Z,10.13
2023-01-25T00:40:22.414Z,10.00
2023-01-25T00:40:35.327Z,10.00
2023-01-25T00:40:49.547Z,9.90
2023-01-25T00:41:02.397Z,9.82
2023-01-25T00:41:15.260Z,9.68
2023-01-25T00:41:28.218Z,9.70
2023-01-25T00:41:41.074Z,9.93
2023-01-25T00:41:54.128Z,9.63
2023-01-25T00:42:10.943Z,9.55
2023-01-25T00:42:23.844Z,9.95
2023-01-25T00:42:36.679Z,10.00
2023-01-25T00:42:49.548Z,9.80
2023-01-25T00:43:02.557Z,10.00
2023-01-25T00:43:15.423Z,9.85
2023-01-25T00:43:28.261Z,9.60
2023-01-25T00:43:41.336Z,9.52
2023-01-25T00:43:54.255Z,9.82
2023-01-25T00:44:07.221Z,9.77
2023-01-25T00:44:20.077Z,9.60
2023-01-25T00:44:32.943Z,9.40
2023-01-25T00:44:45.989Z,9.80
2023-01-25T00:44:58.863Z,10.25
2023-01-25T00:45:12.245Z,10.05
2023-01-25T00:45:25.073Z,10.25
2023-01-25T00:45:37.952Z,10.27
2023-01-25T00:45:50.848Z,9.98
2023-01-25T00:46:03.907Z,9.59
2023-01-25T00:46:17.754Z,9.57
2023-01-25T00:46:30.694Z,9.55
2023-01-25T00:46:43.509Z,9.88
2023-01-25T00:46:56.359Z,10.07
2023-01-25T00:47:10.560Z,10.15
2023-01-25T00:47:23.469Z,10.10
2023-01-25T00:47:36.335Z,10.40
2023-01-25T00:47:49.214Z,10.13
2023-01-25T00:48:02.072Z,9.55
2023-01-25T00:48:14.930Z,9.25
2023-01-25T00:48:27.732Z,9.30
2023-01-25T00:48:40.575Z,9.68
2023-01-25T00:48:54.797Z,10.06
2023-01-25T00:49:08.274Z,10.32
2023-01-25T00:49:25.864Z,10.13
2023-01-25T00:49:54.108Z,9.85
2023-01-25T00:50:07.810Z,9.75
2023-01-25T00:50:20.668Z,9.71
2023-01-25T00:50:33.596Z,9.93
2023-01-25T00:50:46.594Z,10.00
2023-01-25T00:51:02.443Z,9.85
2023-01-25T00:51:15.778Z,9.80
2023-01-25T00:51:28.606Z,9.65
2023-01-25T00:51:41.465Z,9.15
2023-01-25T00:51:54.577Z,9.38
2023-01-25T00:52:07.909Z,9.77
2023-01-25T00:52:22.114Z,9.50
2023-01-25T00:52:35.038Z,9.57
2023-01-25T00:52:47.892Z,9.88
2023-01-25T00:53:00.703Z,9.80
2023-01-25T00:53:13.532Z,9.82
2023-01-25T00:53:26.354Z,9.65
2023-01-25T00:53:39.221Z,9.93
2023-01-25T00:53:52.088Z,10.27
2023-01-25T00:54:04.928Z,10.35
2023-01-25T00:54:18.023Z,10.35
2023-01-25T00:54:30.885Z,10.32
2023-01-25T00:54:43.779Z,10.60
2023-01-25T00:54:57.186Z,10.65
2023-01-25T00:55:10.526Z,9.98
2023-01-25T00:55:23.485Z,9.88
2023-01-25T00:55:36.323Z,9.95
2023-01-25T00:55:52.787Z,9.82
2023-01-25T00:56:05.792Z,9.93
2023-01-25T00:56:18.668Z,10.57
2023-01-25T00:56:31.486Z,10.57
2023-01-25T00:56:44.497Z,10.15
2023-01-25T00:56:57.395Z,10.05
2023-01-25T00:57:10.502Z,10.38
2023-01-25T00:57:23.343Z,10.02
2023-01-25T00:57:36.203Z,10.23
2023-01-25T00:57:49.069Z,10.70
2023-01-25T00:58:01.918Z,10.27
2023-01-25T00:58:14.782Z,10.05
2023-01-25T00:58:27.577Z,10.07
2023-01-25T00:58:41.150Z,10.30
2023-01-25T00:58:53.985Z,9.82
2023-01-25T00:59:06.970Z,10.27
2023-01-25T00:59:20.370Z,10.30
2023-01-25T00:59:33.273Z,10.02
2023-01-25T00:59:47.553Z,10.15
2023-01-25T01:00:00.447Z,10.27
2023-01-25T01:00:13.827Z,10.02
2023-01-25T01:00:26.666Z,9.99
2023-01-25T01:00:39.568Z,9.98
2023-01-25T01:00:56.018Z,9.82
2023-01-25T01:01:09.149Z,10.07
2023-01-25T01:01:22.093Z,10.07
2023-01-25T01:01:35.134Z,9.85
2023-01-25T01:01:48.016Z,10.20
2023-01-25T01:02:01.393Z,10.52
2023-01-25T01:02:14.236Z,10.40
2023-01-25T01:02:27.106Z,10.40
2023-01-25T01:02:40.019Z,10.63
2023-01-25T01:02:52.831Z,10.73
2023-01-25T01:03:05.687Z,10.38
2023-01-25T01:03:18.503Z,10.20
2023-01-25T01:03:31.336Z,10.32
2023-01-25T01:03:44.167Z,10.73
2023-01-25T01:03:57.022Z,10.55
2023-01-25T01:04:10.029Z,10.98
2023-01-25T01:04:25.921Z,11.02
2023-01-25T01:04:38.808Z,10.43
2023-01-25T01:04:51.759Z,10.25
2023-01-25T01:05:04.992Z,10.20
2023-01-25T01:05:17.982Z,9.93
2023-01-25T01:05:30.845Z,9.82
2023-01-25T01:05:43.666Z,10.35
2023-01-25T01:06:14.176Z,10.30
2023-01-25T01:06:27.050Z,10.40
2023-01-25T01:06:40.885Z,10.50
2023-01-25T01:06:54.037Z,10.36
2023-01-25T01:07:06.914Z,10.75
2023-01-25T01:07:19.776Z,10.75
2023-01-25T01:07:32.597Z,10.90
2023-01-25T01:07:45.775Z,10.80
2023-01-25T01:07:58.590Z,10.30
2023-01-25T01:08:12.485Z,10.55
2023-01-25T01:08:25.381Z,10.75
2023-01-25T01:08:56.871Z,10.68
2023-01-25T01:09:13.694Z,10.60
2023-01-25T01:09:26.575Z,10.38
2023-01-25T01:09:39.468Z,10.45
2023-01-25T01:09:52.323Z,10.50
2023-01-25T01:10:05.757Z,10.80
2023-01-25T01:10:18.674Z,10.63
2023-01-25T01:10:31.514Z,9.93
2023-01-25T01:10:44.339Z,10.13
2023-01-25T01:11:01.094Z,10.23
2023-01-25T01:11:14.126Z,10.75
2023-01-25T01:11:26.990Z,10.93
2023-01-25T01:11:39.831Z,10.70
2023-01-25T01:11:52.945Z,10.85
2023-01-25T01:12:05.782Z,10.52
2023-01-25T01:12:18.616Z,10.32
2023-01-25T01:12:31.457Z,10.27
2023-01-25T01:12:44.361Z,10.43
2023-01-25T01:12:57.190Z,10.65
2023-01-25T01:13:10.027Z,10.70
2023-01-25T01:13:22.858Z,10.27
2023-01-25T01:13:35.711Z,10.55
2023-01-25T01:13:48.604Z,10.75
2023-01-25T01:14:01.444Z,11.12
2023-01-25T01:14:14.339Z,10.73
2023-01-25T01:14:28.008Z,10.60
2023-01-25T01:14:40.908Z,10.55
2023-01-25T01:14:53.737Z,10.45
2023-01-25T01:15:07.778Z,10.52
2023-01-25T01:15:20.794Z,10.35
2023-01-25T01:15:36.729Z,10.07
2023-01-25T01:15:49.664Z,9.99
2023-01-25T01:16:03.414Z,10.50
2023-01-25T01:16:16.361Z,10.45
2023-01-25T01:16:29.264Z,10.25
2023-01-25T01:16:42.201Z,10.30
2023-01-25T01:16:57.079Z,10.60
2023-01-25T01:17:10.732Z,10.62
2023-01-25T01:17:23.670Z,10.52
2023-01-25T01:17:36.580Z,10.60
2023-01-25T01:17:49.406Z,10.63
2023-01-25T01:18:02.414Z,10.40
2023-01-25T01:18:15.247Z,10.57
2023-01-25T01:18:28.356Z,10.63
2023-01-25T01:18:42.994Z,10.68
2023-01-25T01:18:55.853Z,10.90
2023-01-25T01:19:08.788Z,11.07
2023-01-25T01:19:21.656Z,10.88
2023-01-25T01:19:34.658Z,10.90
2023-01-25T01:19:47.542Z,10.98
2023-01-25T01:20:00.367Z,10.68
2023-01-25T01:20:13.311Z,10.80
2023-01-25T01:20:26.203Z,11.00
2023-01-25T01:20:39.026Z,11.00
2023-01-25T01:20:52.638Z,10.85
2023-01-25T01:21:05.792Z,10.90
2023-01-25T01:21:18.618Z,10.98
2023-01-25T01:21:31.515Z,10.98
2023-01-25T01:21:44.357Z,10.98
2023-01-25T01:21:57.207Z,10.93
2023-01-25T01:22:10.816Z,10.65
2023-01-25T01:22:23.711Z,10.93
2023-01-25T01:22:36.566Z,11.00
2023-01-25T01:22:52.475Z,10.77
2023-01-25T01:23:05.297Z,10.59
2023-01-25T01:23:18.328Z,10.45
2023-01-25T01:23:31.383Z,10.50
2023-01-25T01:23:44.365Z,10.85
2023-01-25T01:23:57.315Z,11.15
2023-01-25T01:24:10.899Z,10.98
2023-01-25T01:24:23.854Z,10.40
2023-01-25T01:24:36.750Z,10.68
2023-01-25T01:24:49.765Z,11.40
2023-01-25T01:25:02.609Z,11.40
2023-01-25T01:25:15.519Z,10.98
2023-01-25T01:25:28.329Z,11.02
2023-01-25T01:25:41.239Z,11.15
2023-01-25T01:25:54.112Z,11.15
2023-01-25T01:26:08.293Z,11.10
2023-01-25T01:26:21.110Z,11.21
2023-01-25T01:26:33.989Z,11.38
2023-01-25T01:26:46.831Z,11.15
2023-01-25T01:26:59.702Z,10.85
2023-01-25T01:27:12.555Z,10.85
2023-01-25T01:27:25.459Z,11.07
2023-01-25T01:27:38.285Z,10.98
2023-01-25T01:27:51.111Z,11.05
2023-01-25T01:28:03.956Z,11.43
2023-01-25T01:28:16.807Z,11.40
2023-01-25T01:28:30.482Z,11.25
2023-01-25T01:28:43.373Z,10.85
2023-01-25T01:28:56.257Z,10.93
2023-01-25T01:29:09.158Z,11.20
2023-01-25T01:29:22.156Z,11.23
2023-01-25T01:29:35.059Z,10.75
2023-01-25T01:29:47.943Z,10.64
2023-01-25T01:30:00.781Z,10.60
2023-01-25T01:30:13.854Z,10.60
2023-01-25T01:30:26.757Z,10.93
2023-01-25T01:30:39.946Z,11.07
2023-01-25T01:30:52.767Z,11.21
2023-01-25T01:31:07.329Z,11.10
2023-01-25T01:31:23.828Z,11.14
2023-01-25T01:31:55.698Z,10.63
2023-01-25T01:32:21.348Z,11.03
2023-01-25T01:32:34.424Z,10.80
2023-01-25T01:32:47.385Z,10.82
2023-01-25T01:33:00.357Z,10.73
2023-01-25T01:33:13.209Z,10.50
2023-01-25T01:33:26.036Z,10.63
2023-01-25T01:33:38.939Z,11.27
2023-01-25T01:33:52.651Z,11.43
2023-01-25T01:34:05.556Z,11.10
2023-01-25T01:34:19.007Z,11.20
2023-01-25T01:34:31.850Z,11.07
2023-01-25T01:34:44.752Z,11.18
2023-01-25T01:34:57.634Z,11.15
2023-01-25T01:35:10.563Z,11.38
2023-01-25T01:35:23.406Z,11.93
2023-01-25T01:35:36.221Z,11.73
2023-01-25T01:35:49.105Z,11.32
2023-01-25T01:36:12.418Z,11.50
2023-01-25T01:36:26.713Z,10.95
2023-01-25T01:36:39.679Z,11.12
2023-01-25T01:36:52.609Z,11.50
2023-01-25T01:37:05.452Z,11.43
2023-01-25T01:37:18.306Z,10.98
2023-01-25T01:37:31.183Z,10.82
2023-01-25T01:37:44.056Z,11.27
2023-01-25T01:37:56.925Z,11.30
2023-01-25T01:38:09.746Z,11.25
2023-01-25T01:38:22.570Z,10.93
2023-01-25T01:38:35.422Z,10.85
2023-01-25T01:38:48.486Z,10.70
2023-01-25T01:39:01.333Z,10.77
2023-01-25T01:39:16.918Z,11.20
2023-01-25T01:39:29.821Z,11.27
2023-01-25T01:39:42.709Z,11.15
2023-01-25T01:39:55.610Z,10.98
2023-01-25T01:40:09.315Z,11.20
2023-01-25T01:40:22.169Z,11.27
2023-01-25T01:40:35.021Z,10.68
2023-01-25T01:40:47.961Z,10.70
2023-01-25T01:41:00.846Z,11.40
2023-01-25T01:41:13.866Z,11.65
2023-01-25T01:41:26.737Z,11.60
2023-01-25T01:41:39.650Z,11.12
2023-01-25T01:41:52.587Z,11.05
2023-01-25T01:42:05.433Z,11.15
2023-01-25T01:42:18.303Z,11.10
2023-01-25T01:42:31.183Z,11.10
2023-01-25T01:43:00.705Z,11.00
2023-01-25T01:43:17.504Z,11.10
2023-01-25T01:43:33.272Z,11.18
2023-01-25T01:43:46.290Z,11.60
2023-01-25T01:43:59.392Z,11.60
2023-01-25T01:44:27.773Z,11.20
2023-01-25T01:44:56.100Z,11.17
2023-01-25T01:45:45.965Z,11.32
2023-01-25T01:46:34.620Z,11.57
2023-01-25T01:47:02.114Z,11.33
2023-01-25T01:47:18.265Z,11.82
2023-01-25T01:47:35.543Z,12.10
2023-01-25T01:48:01.539Z,11.30
2023-01-25T01:48:41.531Z,11.12
2023-01-25T01:49:03.448Z,11.32
2023-01-25T01:49:20.095Z,11.43
2023-01-25T01:49:32.910Z,12.15
2023-01-25T01:49:50.234Z,12.00
2023-01-25T01:50:21.377Z,11.15
2023-01-25T01:50:34.250Z,11.28
2023-01-25T01:50:48.762Z,11.52
2023-01-25T01:51:08.931Z,11.39
2023-01-25T01:52:21.220Z,11.90
2023-01-25T01:52:47.908Z,11.77
2023-01-25T01:53:00.745Z,11.40
2023-01-25T01:53:13.566Z,11.40
2023-01-25T01:53:26.457Z,11.52
2023-01-25T01:53:40.249Z,12.15
2023-01-25T01:55:18.257Z,11.80
2023-01-25T01:55:43.579Z,12.35
2023-01-25T01:55:57.352Z,12.00
2023-01-25T01:56:11.483Z,11.64
2023-01-25T01:56:28.989Z,11.93
2023-01-25T01:57:14.421Z,11.90
2023-01-25T01:57:47.799Z,11.37
2023-01-25T01:58:00.783Z,11.62
2023-01-25T01:58:13.636Z,11.88
2023-01-25T01:58:26.836Z,11.63
2023-01-25T01:58:42.761Z,11.55
2023-01-25T01:58:55.658Z,11.59
2023-01-25T01:59:08.533Z,11.48
2023-01-25T01:59:22.213Z,11.48
2023-01-25T01:59:44.390Z,11.52
2023-01-25T02:00:31.239Z,11.60
2023-01-25T02:00:56.571Z,12.13
2023-01-25T02:01:09.442Z,12.07
2023-01-25T02:01:22.395Z,12.05
2023-01-25T02:01:35.392Z,11.48
2023-01-25T02:01:48.301Z,11.27
2023-01-25T02:02:01.149Z,11.20
2023-01-25T02:02:14.557Z,11.60
2023-01-25T02:02:27.547Z,12.15
2023-01-25T02:02:41.336Z,11.93
2023-01-25T02:02:54.401Z,11.60
2023-01-25T02:03:07.315Z,11.23
2023-01-25T02:03:38.882Z,11.38
2023-01-25T02:04:05.107Z,11.52
2023-01-25T02:04:19.189Z,11.49
2023-01-25T02:04:32.038Z,11.54
2023-01-25T02:04:46.480Z,11.40
2023-01-25T02:05:00.635Z,11.60
2023-01-25T02:05:20.769Z,12.04
2023-01-25T02:06:24.645Z,11.90
2023-01-25T02:07:06.120Z,11.40
2023-01-25T02:07:25.634Z,11.18
2023-01-25T02:07:39.011Z,10.98
2023-01-25T02:07:52.213Z,11.25
2023-01-25T02:08:05.236Z,11.76
2023-01-25T02:08:18.109Z,12.32
2023-01-25T02:08:32.691Z,11.90
2023-01-25T02:08:45.623Z,11.45
2023-01-25T02:08:58.479Z,11.25
2023-01-25T02:09:11.828Z,11.60
2023-01-25T02:09:25.543Z,11.88
2023-01-25T02:09:38.453Z,12.05
2023-01-25T02:09:51.385Z,12.20
2023-01-25T02:10:05.903Z,11.80
2023-01-25T02:10:18.755Z,12.02
2023-01-25T02:10:31.653Z,11.98
2023-01-25T02:10:44.524Z,11.65
2023-01-25T02:10:57.365Z,11.38
2023-01-25T02:11:10.329Z,11.25
2023-01-25T02:11:23.162Z,11.88
2023-01-25T02:11:36.009Z,12.18
2023-01-25T02:11:48.913Z,12.27
2023-01-25T02:12:01.751Z,12.20
2023-01-25T02:12:14.597Z,12.00
2023-01-25T02:12:27.468Z,12.20
2023-01-25T02:12:40.296Z,11.65
2023-01-25T02:12:54.018Z,11.30
2023-01-25T02:13:06.845Z,11.65
2023-01-25T02:13:19.790Z,11.73
2023-01-25T02:13:32.658Z,11.57
2023-01-25T02:13:45.541Z,11.75
2023-01-25T02:13:58.516Z,11.65
2023-01-25T02:14:11.341Z,11.60
2023-01-25T02:14:24.179Z,11.82
2023-01-25T02:14:37.019Z,11.70
2023-01-25T02:14:52.126Z,11.63
2023-01-25T02:15:05.503Z,11.73
2023-01-25T02:15:18.432Z,11.63
2023-01-25T02:15:38.821Z,11.82
2023-01-25T02:15:51.940Z,11.73
2023-01-25T02:16:05.419Z,11.45
2023-01-25T02:16:19.966Z,11.48
2023-01-25T02:16:32.928Z,11.44
2023-01-25T02:16:45.890Z,12.10
2023-01-25T02:16:58.725Z,12.30
2023-01-25T02:17:11.809Z,11.98
2023-01-25T02:17:32.363Z,11.73
2023-01-25T02:17:57.631Z,11.63
2023-01-25T02:18:10.953Z,11.80
2023-01-25T02:18:24.039Z,12.10
2023-01-25T02:18:36.882Z,12.08
2023-01-25T02:18:49.746Z,11.60
2023-01-25T02:19:03.772Z,11.45
2023-01-25T02:19:42.299Z,11.95
2023-01-25T02:20:37.526Z,11.48
2023-01-25T02:20:54.404Z,12.07
2023-01-25T02:21:07.249Z,11.73
2023-01-25T02:21:20.100Z,11.48
2023-01-25T02:21:37.131Z,11.60
2023-01-25T02:22:10.336Z,11.69
2023-01-25T03:03:33.347Z,11.85
2023-01-25T03:04:06.412Z,11.35
2023-01-25T03:04:57.747Z,11.14
2023-01-25T03:06:06.147Z,11.30
2023-01-25T03:07:10.286Z,11.70
2023-01-25T03:08:34.697Z,11.28
2023-01-25T03:11:32.655Z,11.37
2023-01-25T03:13:17.453Z,10.70
2023-01-25T03:15:15.871Z,11.20
2023-01-25T03:16:41.476Z,11.24
2023-01-25T03:18:23.471Z,10.97
2023-01-25T03:18:56.343Z,11.10
2023-01-25T03:20:01.588Z,10.73
2023-01-25T03:20:34.339Z,10.55
2023-01-25T03:21:14.487Z,11.10
2023-01-25T03:21:47.378Z,10.85
2023-01-25T03:22:00.591Z,10.85
2023-01-25T03:22:13.618Z,11.07
2023-01-25T03:22:26.456Z,10.85
2023-01-25T03:22:39.372Z,10.80
2023-01-25T03:22:52.193Z,11.12
2023-01-25T03:23:05.188Z,10.85
2023-01-25T03:23:18.058Z,11.07
2023-01-25T03:23:30.919Z,11.00
2023-01-25T03:23:43.855Z,10.57
2023-01-25T03:23:58.809Z,10.35
2023-01-25T03:24:11.938Z,10.75
2023-01-25T03:24:24.851Z,10.93
2023-01-25T03:24:37.741Z,10.88
2023-01-25T03:24:53.803Z,10.80
2023-01-25T03:25:07.631Z,10.88
2023-01-25T03:25:20.642Z,10.90
2023-01-25T03:25:33.478Z,10.80
2023-01-25T03:25:46.339Z,10.73
2023-01-25T03:26:10.324Z,10.20
2023-01-25T03:26:55.884Z,11.10
2023-01-25T03:27:23.962Z,10.73
2023-01-25T03:27:36.784Z,10.40
2023-01-25T03:27:49.647Z,10.32
2023-01-25T03:28:02.487Z,10.50
2023-01-25T03:28:15.367Z,10.50
2023-01-25T03:28:28.198Z,10.40
2023-01-25T03:28:41.272Z,10.48
2023-01-25T03:28:54.123Z,10.82
2023-01-25T03:29:06.985Z,11.07
2023-01-25T03:29:19.857Z,10.68
2023-01-25T03:29:33.577Z,10.77
2023-01-25T03:29:46.431Z,10.75
2023-01-25T03:29:59.336Z,10.50
2023-01-25T03:30:12.334Z,10.70
2023-01-25T03:30:25.199Z,10.90
2023-01-25T03:30:38.106Z,10.60
2023-01-25T03:30:53.516Z,10.30
2023-01-25T03:31:06.832Z,10.55
2023-01-25T03:31:19.779Z,11.00
2023-01-25T03:31:32.741Z,10.57
2023-01-25T03:31:45.733Z,10.57
2023-01-25T03:31:58.827Z,10.32
2023-01-25T03:32:12.065Z,10.23
2023-01-25T03:32:25.038Z,10.45
2023-01-25T03:32:38.373Z,10.48
2023-01-25T03:32:51.252Z,10.15
2023-01-25T03:33:04.534Z,10.13
2023-01-25T03:33:17.408Z,10.10
2023-01-25T03:33:30.351Z,10.15
2023-01-25T03:33:43.226Z,10.57
2023-01-25T03:33:56.060Z,10.52
2023-01-25T03:34:08.902Z,10.65
2023-01-25T03:34:21.749Z,10.40
2023-01-25T03:34:34.652Z,10.55
2023-01-25T03:34:47.584Z,10.63
2023-01-25T03:35:00.474Z,10.82
2023-01-25T03:35:13.306Z,11.23
2023-01-25T03:35:26.195Z,10.90
2023-01-25T03:35:39.073Z,10.60
2023-01-25T03:35:53.282Z,10.40
2023-01-25T03:36:06.849Z,10.49
2023-01-25T03:36:19.785Z,10.73
2023-01-25T03:36:32.720Z,10.70
2023-01-25T03:36:45.663Z,10.50
2023-01-25T03:36:58.501Z,10.50
2023-01-25T03:37:11.477Z,10.48
2023-01-25T03:37:27.366Z,10.68
2023-01-25T03:37:40.383Z,10.70
2023-01-25T03:37:53.216Z,10.36
2023-01-25T03:38:06.040Z,10.20
2023-01-25T03:38:20.624Z,10.35
2023-01-25T03:38:33.660Z,10.70
2023-01-25T03:38:46.608Z,10.02
2023-01-25T03:38:59.651Z,9.90
2023-01-25T03:39:12.526Z,10.25
2023-01-25T03:39:25.388Z,10.30
2023-01-25T03:39:38.221Z,10.32
2023-01-25T03:39:51.085Z,10.70
2023-01-25T03:40:04.310Z,10.65
2023-01-25T03:40:17.362Z,9.65
2023-01-25T03:40:30.227Z,9.60
2023-01-25T03:40:43.100Z,10.13
2023-01-25T03:40:55.982Z,10.70
2023-01-25T03:41:08.837Z,10.75
2023-01-25T03:41:21.678Z,10.57
2023-01-25T03:41:34.493Z,10.40
2023-01-25T03:41:47.345Z,10.52
2023-01-25T03:42:00.172Z,10.52
2023-01-25T03:42:13.437Z,10.30
2023-01-25T03:42:26.313Z,10.38
2023-01-25T03:42:39.150Z,10.85
2023-01-25T03:42:53.612Z,10.73
2023-01-25T03:43:06.522Z,10.30
2023-01-25T03:43:19.392Z,10.02
2023-01-25T03:43:32.258Z,10.40
2023-01-25T03:43:45.127Z,10.60
2023-01-25T03:43:58.017Z,10.48
2023-01-25T03:44:11.631Z,10.55
2023-01-25T03:44:24.593Z,10.39
2023-01-25T03:44:37.503Z,10.23
2023-01-25T03:44:50.348Z,10.10
2023-01-25T03:45:03.392Z,10.05
2023-01-25T03:45:16.360Z,10.02
2023-01-25T03:45:29.192Z,9.93
2023-01-25T03:45:42.312Z,10.02
2023-01-25T03:45:56.400Z,10.40
2023-01-25T03:46:09.320Z,10.26
2023-01-25T03:46:22.143Z,10.02
2023-01-25T03:46:35.017Z,10.20
2023-01-25T03:46:48.092Z,10.73
2023-01-25T03:47:01.052Z,10.75
2023-01-25T03:47:14.025Z,10.55
2023-01-25T03:47:26.926Z,10.45
2023-01-25T03:47:40.299Z,10.25
2023-01-25T03:47:53.181Z,10.43
2023-01-25T03:48:06.304Z,10.25
2023-01-25T03:48:19.154Z,10.18
2023-01-25T03:48:32.008Z,10.02
2023-01-25T03:48:44.930Z,9.70
2023-01-25T03:48:57.769Z,9.93
2023-01-25T03:49:10.732Z,10.52
2023-01-25T03:49:23.562Z,10.05
2023-01-25T03:49:36.435Z,10.07
2023-01-25T03:49:49.269Z,10.27
2023-01-25T03:50:02.107Z,10.27
2023-01-25T03:50:15.156Z,10.43
2023-01-25T03:50:28.012Z,10.02
2023-01-25T03:50:40.875Z,10.25
2023-01-25T03:50:55.396Z,10.98
2023-01-25T03:51:08.935Z,10.96
2023-01-25T03:51:21.772Z,10.27
2023-01-25T03:51:34.678Z,10.38
2023-01-25T03:51:47.644Z,10.35
2023-01-25T03:52:00.505Z,10.10
2023-01-25T03:52:13.350Z,10.07
2023-01-25T03:52:42.129Z,10.27
2023-01-25T03:53:32.168Z,10.57
2023-01-25T03:53:57.472Z,10.13
2023-01-25T03:54:10.432Z,10.05
2023-01-25T03:54:23.517Z,9.82
2023-01-25T03:54:36.345Z,10.13
2023-01-25T03:54:49.224Z,10.52
2023-01-25T03:55:02.106Z,10.32
2023-01-25T03:55:14.984Z,10.40
2023-01-25T03:55:28.340Z,10.40
2023-01-25T03:55:41.180Z,10.40
2023-01-25T03:55:55.562Z,10.15
2023-01-25T03:56:09.834Z,9.99
2023-01-25T03:56:22.641Z,10.09
2023-01-25T03:56:35.960Z,10.38
2023-01-25T03:56:48.797Z,10.39
2023-01-25T03:57:01.669Z,9.88
2023-01-25T03:57:14.624Z,10.10
2023-01-25T03:57:27.493Z,10.50
2023-01-25T03:57:40.322Z,10.55
2023-01-25T03:57:53.162Z,9.95
2023-01-25T03:58:05.997Z,9.98
2023-01-25T03:58:18.846Z,10.25
2023-01-25T03:58:31.852Z,10.43
2023-01-25T03:58:44.763Z,10.20
2023-01-25T03:58:57.616Z,10.15
2023-01-25T03:59:11.644Z,10.15
2023-01-25T03:59:24.595Z,9.99
2023-01-25T03:59:37.466Z,9.57
2023-01-25T03:59:50.311Z,9.68
2023-01-25T04:00:03.921Z,10.25
2023-01-25T04:00:17.368Z,10.38
2023-01-25T04:00:30.290Z,10.30
2023-01-25T04:00:43.203Z,10.57
2023-01-25T04:00:57.251Z,10.40
2023-01-25T04:01:10.281Z,10.13
2023-01-25T04:01:23.314Z,10.07
2023-01-25T04:01:36.285Z,10.23
2023-01-25T04:01:49.244Z,9.90
2023-01-25T04:02:03.056Z,10.30
2023-01-25T04:02:16.165Z,10.39
2023-01-25T04:02:29.333Z,9.82
2023-01-25T04:02:42.449Z,9.55
2023-01-25T04:02:55.317Z,9.77
2023-01-25T04:03:08.131Z,10.48
2023-01-25T04:03:21.671Z,10.80
2023-01-25T04:03:34.899Z,10.27
2023-01-25T04:03:47.754Z,9.98
2023-01-25T04:04:00.629Z,10.00
2023-01-25T04:04:13.471Z,10.05
2023-01-25T04:04:26.354Z,9.93
2023-01-25T04:04:39.259Z,10.02
2023-01-25T04:04:52.152Z,10.35
2023-01-25T04:05:05.411Z,10.43
2023-01-25T04:05:18.453Z,10.18
2023-01-25T04:05:31.337Z,10.55
2023-01-25T04:05:44.408Z,10.75
2023-01-25T04:05:58.023Z,10.35
2023-01-25T04:06:10.877Z,9.85
2023-01-25T04:06:23.776Z,9.60
2023-01-25T04:06:36.653Z,9.70
2023-01-25T04:06:49.584Z,9.65
2023-01-25T04:07:02.420Z,9.68
2023-01-25T04:07:15.227Z,9.75
2023-01-25T04:07:28.064Z,10.00
2023-01-25T04:07:40.894Z,9.95
2023-01-25T04:07:53.739Z,9.65
2023-01-25T04:08:06.688Z,10.00
2023-01-25T04:08:19.648Z,10.23
2023-01-25T04:08:32.731Z,9.80
2023-01-25T04:08:45.681Z,9.63
2023-01-25T04:08:58.576Z,9.75
2023-01-25T04:09:11.457Z,9.61
2023-01-25T04:09:24.489Z,9.43
2023-01-25T04:09:37.357Z,9.25
2023-01-25T04:09:51.459Z,9.43
2023-01-25T04:10:05.147Z,9.57
2023-01-25T04:10:18.074Z,9.85
2023-01-25T04:10:30.905Z,9.86
2023-01-25T04:10:43.865Z,9.65
2023-01-25T04:11:00.452Z,9.40
2023-01-25T04:11:25.952Z,9.90
2023-01-25T04:11:38.825Z,9.75
2023-01-25T04:11:51.718Z,9.60
2023-01-25T04:12:04.706Z,9.50
2023-01-25T04:12:17.527Z,9.48
2023-01-25T04:12:30.381Z,9.18
2023-01-25T04:12:43.233Z,9.82
2023-01-25T04:12:56.077Z,10.13
2023-01-25T04:13:09.270Z,9.98
2023-01-25T04:13:22.551Z,9.48
2023-01-25T04:13:36.710Z,9.05
2023-01-25T04:13:49.552Z,9.41
2023-01-25T04:14:02.449Z,10.07
2023-01-25T04:14:15.308Z,10.40
2023-01-25T04:14:43.334Z,10.40
2023-01-25T04:14:57.066Z,10.00
2023-01-25T04:15:10.605Z,9.80
2023-01-25T04:15:23.693Z,9.80
2023-01-25T04:15:36.519Z,9.98
2023-01-25T04:15:49.453Z,9.77
2023-01-25T04:16:03.158Z,9.55
2023-01-25T04:16:16.072Z,9.52
2023-01-25T04:16:30.567Z,9.55
2023-01-25T04:16:43.499Z,9.55
2023-01-25T04:16:56.403Z,9.44
2023-01-25T04:17:10.928Z,9.68
2023-01-25T04:17:23.964Z,9.82
2023-01-25T04:17:36.787Z,10.20
2023-01-25T04:17:49.649Z,10.13
2023-01-25T04:18:02.483Z,9.90
2023-01-25T04:18:15.407Z,9.70
2023-01-25T04:18:28.282Z,9.57
2023-01-25T04:18:41.390Z,9.98
2023-01-25T04:18:54.301Z,9.70
2023-01-25T04:19:07.225Z,9.65
2023-01-25T04:19:20.042Z,9.60
2023-01-25T04:19:32.875Z,9.70
2023-01-25T04:19:45.750Z,9.75
2023-01-25T04:19:58.621Z,9.90
2023-01-25T04:20:11.847Z,10.13
2023-01-25T04:20:24.706Z,9.90
2023-01-25T04:20:37.553Z,9.68
2023-01-25T04:20:53.909Z,9.10
2023-01-25T04:21:06.705Z,9.10
2023-01-25T04:21:19.583Z,9.51
2023-01-25T04:21:32.709Z,10.10
2023-01-25T04:21:45.554Z,9.93
2023-01-25T04:21:58.427Z,9.40
2023-01-25T04:22:11.272Z,9.38
2023-01-25T04:22:24.086Z,9.40
2023-01-25T04:22:36.914Z,9.45
2023-01-25T04:22:49.722Z,9.73
2023-01-25T04:23:02.736Z,9.63
2023-01-25T04:23:15.567Z,9.43
2023-01-25T04:23:28.414Z,9.48
2023-01-25T04:23:41.248Z,9.68
2023-01-25T04:23:54.124Z,9.88
2023-01-25T04:24:07.293Z,9.65
2023-01-25T04:24:20.238Z,9.73
2023-01-25T04:24:33.225Z,9.79
2023-01-25T04:24:46.054Z,9.55
2023-01-25T04:24:58.871Z,9.07
2023-01-25T04:25:12.011Z,9.07
2023-01-25T04:25:25.001Z,9.18
2023-01-25T04:25:38.099Z,9.77
2023-01-25T04:25:58.003Z,9.80
2023-01-25T04:26:25.114Z,9.70
2023-01-25T04:26:37.935Z,9.25
2023-01-25T04:26:50.755Z,9.40
2023-01-25T04:27:03.671Z,9.86
2023-01-25T04:27:16.499Z,9.77
2023-01-25T04:27:29.349Z,9.93
2023-01-25T04:27:42.201Z,9.80
2023-01-25T04:27:55.174Z,9.80
2023-01-25T04:28:08.050Z,10.02
2023-01-25T04:28:20.951Z,9.55
2023-01-25T04:28:34.317Z,9.65
2023-01-25T04:28:47.153Z,9.90
2023-01-25T04:28:59.970Z,9.82
2023-01-25T04:29:13.097Z,9.48
2023-01-25T04:29:35.451Z,9.50
2023-01-25T04:30:06.159Z,9.80
2023-01-25T04:30:19.193Z,9.85
2023-01-25T04:30:32.328Z,9.39
2023-01-25T04:30:45.353Z,9.35
2023-01-25T04:30:58.300Z,9.55
2023-01-25T04:31:11.364Z,9.73
2023-01-25T04:31:24.281Z,9.50
2023-01-25T04:31:37.246Z,9.65
2023-01-25T04:31:50.339Z,9.68
2023-01-25T04:32:03.346Z,9.34
2023-01-25T04:32:16.371Z,9.13
2023-01-25T04:32:29.378Z,9.30
2023-01-25T04:32:42.399Z,9.23
2023-01-25T04:32:55.366Z,9.38
2023-01-25T04:33:08.223Z,9.40
2023-01-25T04:33:21.053Z,9.50
2023-01-25T04:33:34.037Z,9.43